createdAt,value
2022-08-22T00:01:46.266Z,100.00
2022-08-22T00:02:42.864Z,100.00
2022-08-22T00:02:49.197Z,100.00
2022-08-22T00:03:15.146Z,100.00
2022-08-22T00:03:50.085Z,100.00
2022-08-22T00:06:01.299Z,100.00
2022-08-22T00:08:06.899Z,100.00
2022-08-22T00:10:09.454Z,100.00
2022-08-22T00:12:14.297Z,100.00
2022-08-22T00:14:17.010Z,100.00
2022-08-22T00:16:20.302Z,100.00
2022-08-22T00:18:22.752Z,100.00
2022-08-22T00:20:28.338Z,100.00
2022-08-22T00:22:31.859Z,100.00
2022-08-22T00:24:35.397Z,100.00
2022-08-22T00:26:43.305Z,100.00
2022-08-22T00:28:47.712Z,100.00
2022-08-22T00:30:51.943Z,100.00
2022-08-22T00:32:54.807Z,100.00
2022-08-22T00:34:57.105Z,100.00
2022-08-22T00:37:00.074Z,100.00
2022-08-22T00:39:05.938Z,100.00
2022-08-22T00:41:10.596Z,100.00
2022-08-22T00:43:20.216Z,100.00
2022-08-22T00:45:39.403Z,100.00
2022-08-22T00:47:46.259Z,100.00
2022-08-22T00:49:58.485Z,100.00
2022-08-22T00:52:04.765Z,100.00
2022-08-22T00:54:09.644Z,100.00
2022-08-22T00:56:24.207Z,100.00
2022-08-22T00:58:43.388Z,100.00
2022-08-22T01:00:45.507Z,100.00
2022-08-22T01:03:04.981Z,100.00
2022-08-22T01:05:30.399Z,100.00
2022-08-22T01:07:38.343Z,100.00
2022-08-22T01:09:42.765Z,100.00
2022-08-22T01:11:55.266Z,100.00
2022-08-22T01:14:03.855Z,100.00
2022-08-22T01:16:09.375Z,100.00
2022-08-22T01:18:27.544Z,100.00
2022-08-22T01:20:50.297Z,100.00
2022-08-22T01:23:06.814Z,100.00
2022-08-22T01:25:27.129Z,100.00
2022-08-22T01:27:39.135Z,100.00
2022-08-22T01:30:02.147Z,100.00
2022-08-22T01:32:22.697Z,100.00
2022-08-22T01:34:38.248Z,100.00
2022-08-22T01:36:44.080Z,100.00
2022-08-22T01:38:59.742Z,100.00
2022-08-22T01:41:06.291Z,100.00
2022-08-22T01:43:13.902Z,100.00
2022-08-22T01:45:34.977Z,100.00
2022-08-22T01:47:37.581Z,100.00
2022-08-22T01:49:42.182Z,100.00
2022-08-22T01:51:45.937Z,100.00
2022-08-22T01:53:55.933Z,100.00
2022-08-22T01:56:00.194Z,100.00
2022-08-22T01:58:02.177Z,100.00
2022-08-22T02:00:04.129Z,100.00
2022-08-22T02:02:09.692Z,100.00
2022-08-22T02:04:13.155Z,100.00
2022-08-22T02:06:17.631Z,100.00
2022-08-22T02:08:20.989Z,100.00
2022-08-22T02:10:23.151Z,100.00
2022-08-22T02:12:26.622Z,100.00
2022-08-22T02:14:33.930Z,100.00
2022-08-22T02:16:36.433Z,100.00
2022-08-22T02:19:04.848Z,100.00
2022-08-22T02:21:10.550Z,100.00
2022-08-22T02:23:17.825Z,100.00
2022-08-22T02:25:19.864Z,100.00
2022-08-22T02:27:24.231Z,100.00
2022-08-22T02:29:29.799Z,100.00
2022-08-22T02:31:36.595Z,100.00
2022-08-22T02:33:39.321Z,100.00
2022-08-22T02:35:42.460Z,100.00
2022-08-22T02:37:47.879Z,100.00
2022-08-22T02:39:52.728Z,100.00
2022-08-22T02:41:55.224Z,100.00
2022-08-22T02:43:57.775Z,100.00
2022-08-22T02:46:01.885Z,100.00
2022-08-22T02:48:04.714Z,100.00
2022-08-22T02:50:12.950Z,100.00
2022-08-22T02:52:15.572Z,100.00
2022-08-22T02:54:18.220Z,100.00
2022-08-22T02:56:21.997Z,100.00
2022-08-22T02:58:25.836Z,100.00
2022-08-22T03:00:32.737Z,100.00
2022-08-22T03:02:36.269Z,100.00
2022-08-22T03:04:45.047Z,100.00
2022-08-22T03:06:58.968Z,100.00
2022-08-22T03:09:02.371Z,100.00
2022-08-22T03:11:08.108Z,100.00
2022-08-22T03:13:11.610Z,100.00
2022-08-22T03:15:20.902Z,100.00
2022-08-22T03:17:24.126Z,100.00
2022-08-22T03:19:28.051Z,100.00
2022-08-22T03:21:32.045Z,100.00
2022-08-22T03:23:36.527Z,100.00
2022-08-22T03:25:39.501Z,100.00
2022-08-22T03:27:42.294Z,100.00
2022-08-22T03:29:45.939Z,100.00
2022-08-22T03:32:07.423Z,100.00
2022-08-22T03:34:16.044Z,100.00
2022-08-22T03:36:24.311Z,100.00
2022-08-22T03:38:26.558Z,100.00
2022-08-22T03:40:31.613Z,100.00
2022-08-22T03:42:45.029Z,100.00
2022-08-22T03:44:53.369Z,100.00
2022-08-22T03:47:02.220Z,100.00
2022-08-22T03:49:27.979Z,100.00
2022-08-22T03:51:33.567Z,100.00
2022-08-22T03:53:39.528Z,100.00
2022-08-22T03:55:46.909Z,100.00
2022-08-22T03:57:52.841Z,100.00
2022-08-22T04:00:18.347Z,100.00
2022-08-22T04:02:42.263Z,100.00
2022-08-22T04:05:06.838Z,100.00
2022-08-22T04:07:31.436Z,100.00
2022-08-22T04:09:44.917Z,100.00
2022-08-22T04:12:01.238Z,100.00
2022-08-22T04:14:17.598Z,100.00
2022-08-22T04:16:37.572Z,100.00
2022-08-22T04:18:57.037Z,100.00
2022-08-22T04:21:16.518Z,100.00
2022-08-22T04:23:31.495Z,100.00
2022-08-22T04:25:34.042Z,100.00
2022-08-22T04:27:38.566Z,100.00
2022-08-22T04:29:42.536Z,100.00
2022-08-22T04:31:45.143Z,100.00
2022-08-22T04:33:47.722Z,100.00
2022-08-22T04:35:54.120Z,100.00
2022-08-22T04:37:56.931Z,100.00
2022-08-22T04:40:01.558Z,100.00
2022-08-22T04:42:29.162Z,100.00
2022-08-22T04:44:27.989Z,100.00
2022-08-22T04:46:36.953Z,100.00
2022-08-22T04:48:39.251Z,100.00
2022-08-22T04:50:43.610Z,100.00
2022-08-22T04:52:54.925Z,100.00
2022-08-22T04:54:56.939Z,100.00
2022-08-22T04:57:06.167Z,100.00
2022-08-22T04:59:08.130Z,100.00
2022-08-22T05:01:12.607Z,100.00
2022-08-22T05:03:14.770Z,100.00
2022-08-22T05:05:17.343Z,100.00
2022-08-22T05:07:19.668Z,100.00
2022-08-22T05:09:22.332Z,100.00
2022-08-22T05:11:23.890Z,100.00
2022-08-22T05:13:27.340Z,100.00
2022-08-22T05:15:30.886Z,100.00
2022-08-22T05:17:32.906Z,100.00
2022-08-22T05:19:35.738Z,100.00
2022-08-22T05:21:38.746Z,100.00
2022-08-22T05:23:41.880Z,100.00
2022-08-22T05:25:43.483Z,100.00
2022-08-22T05:27:45.997Z,100.00
2022-08-22T05:29:49.761Z,100.00
2022-08-22T05:31:53.552Z,100.00
2022-08-22T05:33:56.168Z,100.00
2022-08-22T05:35:58.932Z,100.00
2022-08-22T05:38:00.480Z,100.00
2022-08-22T05:40:02.067Z,100.00
2022-08-22T05:42:03.910Z,100.00
2022-08-22T05:44:06.807Z,100.00
2022-08-22T05:46:10.239Z,100.00
2022-08-22T05:48:12.180Z,100.00
2022-08-22T05:50:15.475Z,100.00
2022-08-22T05:52:22.563Z,100.00
2022-08-22T05:54:33.663Z,100.00
2022-08-22T05:56:37.348Z,100.00
2022-08-22T05:58:46.646Z,100.00
2022-08-22T06:00:48.996Z,100.00
2022-08-22T06:03:03.378Z,100.00
2022-08-22T06:05:07.638Z,100.00
2022-08-22T06:07:14.781Z,100.00
2022-08-22T06:09:17.805Z,100.00
2022-08-22T06:11:20.526Z,100.00
2022-08-22T06:13:26.181Z,100.00
2022-08-22T06:15:33.796Z,100.00
2022-08-22T06:17:36.039Z,100.00
2022-08-22T06:19:41.467Z,100.00
2022-08-22T06:21:42.958Z,100.00
2022-08-22T06:23:45.464Z,100.00
2022-08-22T06:25:47.576Z,100.00
2022-08-22T06:27:49.174Z,100.00
2022-08-22T06:29:51.754Z,100.00
2022-08-22T06:31:53.262Z,100.00
2022-08-22T06:33:55.962Z,100.00
2022-08-22T06:36:00.619Z,100.00
2022-08-22T06:38:02.155Z,100.00
2022-08-22T06:40:05.001Z,100.00
2022-08-22T06:42:13.241Z,100.00
2022-08-22T06:44:21.304Z,100.00
2022-08-22T06:46:22.905Z,100.00
2022-08-22T06:48:24.634Z,100.00
2022-08-22T06:50:28.038Z,100.00
2022-08-22T06:52:32.191Z,100.00
2022-08-22T06:54:34.572Z,100.00
2022-08-22T06:56:39.589Z,100.00
2022-08-22T06:58:42.559Z,100.00
2022-08-22T07:00:47.551Z,100.00
2022-08-22T07:02:55.703Z,100.00
2022-08-22T07:04:57.195Z,100.00
2022-08-22T07:06:59.139Z,100.00
2022-08-22T07:09:06.803Z,100.00
2022-08-22T07:11:11.271Z,100.00
2022-08-22T07:13:13.813Z,100.00
2022-08-22T07:15:19.129Z,100.00
2022-08-22T07:17:21.421Z,100.00
2022-08-22T07:19:24.151Z,100.00
2022-08-22T07:21:27.078Z,100.00
2022-08-22T07:23:30.975Z,100.00
2022-08-22T07:25:33.876Z,100.00
2022-08-22T07:27:44.087Z,100.00
2022-08-22T07:29:53.567Z,100.00
2022-08-22T07:31:57.457Z,100.00
2022-08-22T07:34:00.241Z,100.00
2022-08-22T07:36:02.068Z,100.00
2022-08-22T07:38:07.065Z,100.00
2022-08-22T07:40:12.106Z,100.00
2022-08-22T07:42:16.200Z,100.00
2022-08-22T07:44:18.031Z,100.00
2022-08-22T07:46:22.122Z,100.00
2022-08-22T07:48:26.271Z,100.00
2022-08-22T07:50:28.667Z,100.00
2022-08-22T07:52:30.586Z,100.00
2022-08-22T07:54:33.057Z,100.00
2022-08-22T07:56:35.421Z,100.00
2022-08-22T07:58:38.588Z,100.00
2022-08-22T08:00:41.561Z,100.00
2022-08-22T08:02:44.508Z,100.00
2022-08-22T08:04:46.317Z,100.00
2022-08-22T08:06:48.286Z,100.00
2022-08-22T08:08:49.800Z,100.00
2022-08-22T08:10:51.384Z,100.00
2022-08-22T08:13:01.883Z,100.00
2022-08-22T08:15:07.757Z,100.00
2022-08-22T08:17:09.782Z,100.00
2022-08-22T08:19:11.584Z,100.00
2022-08-22T08:21:15.009Z,100.00
2022-08-22T08:23:16.529Z,100.00
2022-08-22T08:25:26.142Z,100.00
2022-08-22T08:27:28.475Z,100.00
2022-08-22T08:29:29.973Z,97.63
2022-08-22T08:31:33.442Z,96.58
2022-08-22T08:33:35.787Z,93.33
2022-08-22T08:36:02.039Z,93.14
2022-08-22T08:38:01.733Z,88.28
2022-08-22T08:40:04.141Z,87.03
2022-08-22T08:42:26.578Z,90.78
2022-08-22T08:44:49.135Z,87.54
2022-08-22T08:46:56.049Z,82.40
2022-08-22T08:49:06.505Z,79.49
2022-08-22T08:51:19.472Z,81.15
2022-08-22T08:53:37.909Z,83.61
2022-08-22T08:55:45.990Z,81.65
2022-08-22T08:57:54.723Z,83.98
2022-08-22T09:00:05.584Z,82.75
2022-08-22T09:02:24.974Z,83.17
2022-08-22T09:04:38.023Z,85.17
2022-08-22T09:06:52.826Z,82.32
2022-08-22T09:09:12.856Z,81.31
2022-08-22T09:11:35.110Z,82.55
2022-08-22T09:13:40.720Z,86.86
2022-08-22T09:16:04.770Z,87.25
2022-08-22T09:18:18.114Z,84.65
2022-08-22T09:20:34.756Z,80.67
2022-08-22T09:22:59.458Z,85.97
2022-08-22T09:27:29.670Z,87.78
2022-08-22T09:29:35.067Z,78.45
2022-08-22T09:31:59.710Z,75.75
2022-08-22T09:34:05.237Z,78.01
2022-08-22T09:36:12.044Z,80.54
2022-08-22T09:38:31.963Z,80.60
2022-08-22T09:40:37.654Z,78.56
2022-08-22T09:42:45.011Z,75.52
2022-08-22T09:44:58.927Z,71.79
2022-08-22T09:47:03.164Z,70.72
2022-08-22T09:49:06.629Z,70.43
2022-08-22T09:51:31.921Z,67.28
2022-08-22T09:53:38.914Z,66.60
2022-08-22T09:55:43.176Z,63.85
2022-08-22T09:57:47.271Z,64.21
2022-08-22T09:59:55.057Z,64.30
2022-08-22T10:02:01.472Z,64.45
2022-08-22T10:04:26.097Z,64.34
2022-08-22T10:06:28.899Z,61.58
2022-08-22T10:08:32.078Z,65.08
2022-08-22T10:10:37.379Z,64.75
2022-08-22T10:12:44.992Z,66.74
2022-08-22T10:14:51.308Z,65.96
2022-08-22T10:16:54.289Z,66.54
2022-08-22T10:19:00.882Z,65.00
2022-08-22T10:21:03.770Z,65.24
2022-08-22T10:23:09.373Z,66.57
2022-08-22T10:25:18.562Z,74.56
2022-08-22T10:27:20.662Z,73.87
2022-08-22T10:29:35.637Z,71.92
2022-08-22T10:31:58.573Z,69.72
2022-08-22T10:34:01.519Z,71.49
2022-08-22T10:36:05.053Z,70.59
2022-08-22T10:38:07.413Z,74.12
2022-08-22T10:40:13.256Z,72.35
2022-08-22T10:42:18.599Z,69.69
2022-08-22T10:44:21.183Z,66.79
2022-08-22T10:46:24.870Z,62.57
2022-08-22T10:48:33.218Z,60.19
2022-08-22T10:50:35.246Z,60.09
2022-08-22T10:52:38.078Z,57.38
2022-08-22T10:54:46.004Z,57.65
2022-08-22T10:56:48.936Z,57.17
2022-08-22T10:58:52.089Z,58.03
2022-08-22T11:00:55.343Z,55.61
2022-08-22T11:03:00.043Z,55.84
2022-08-22T11:05:15.119Z,55.93
2022-08-22T11:07:36.490Z,54.78
2022-08-22T11:09:43.067Z,54.96
2022-08-22T11:11:45.974Z,53.00
2022-08-22T11:13:54.799Z,51.25
2022-08-22T11:15:59.084Z,50.90
2022-08-22T11:18:13.022Z,52.10
2022-08-22T11:20:16.909Z,52.22
2022-08-22T11:22:25.059Z,52.40
2022-08-22T11:24:55.265Z,53.18
2022-08-22T11:26:58.663Z,51.15
2022-08-22T11:29:14.049Z,49.95
2022-08-22T11:31:17.990Z,49.01
2022-08-22T11:33:46.788Z,50.83
2022-08-22T11:35:50.750Z,50.48
2022-08-22T11:37:56.385Z,48.87
2022-08-22T11:40:01.920Z,47.08
2022-08-22T11:42:04.592Z,47.20
2022-08-22T11:44:07.826Z,47.42
2022-08-22T11:46:19.998Z,46.26
2022-08-22T11:48:23.221Z,47.18
2022-08-22T11:50:28.690Z,46.77
2022-08-22T11:52:37.174Z,47.96
2022-08-22T11:54:46.689Z,48.19
2022-08-22T11:56:48.669Z,48.35
2022-08-22T11:58:52.567Z,48.19
2022-08-22T12:00:55.223Z,48.38
2022-08-22T12:03:00.143Z,47.38
2022-08-22T12:05:04.108Z,47.82
2022-08-22T12:07:10.247Z,47.89
2022-08-22T12:09:14.091Z,46.21
2022-08-22T12:11:21.670Z,47.21
2022-08-22T12:13:35.011Z,47.28
2022-08-22T12:15:38.745Z,47.20
2022-08-22T12:18:01.923Z,47.90
2022-08-22T12:20:16.453Z,47.58
2022-08-22T12:22:37.796Z,47.87
2022-08-22T12:24:44.600Z,47.94
2022-08-22T12:26:49.701Z,47.70
2022-08-22T12:28:55.437Z,47.09
2022-08-22T12:31:00.998Z,46.82
2022-08-22T12:33:21.950Z,46.55
2022-08-22T12:35:29.914Z,47.12
2022-08-22T12:37:37.204Z,47.56
2022-08-22T12:39:59.093Z,46.10
2022-08-22T12:42:10.616Z,47.15
2022-08-22T12:44:17.174Z,47.47
2022-08-22T12:46:23.345Z,47.46
2022-08-22T12:48:36.867Z,45.69
2022-08-22T12:50:42.420Z,47.24
2022-08-22T12:52:48.580Z,46.99
2022-08-22T12:54:55.443Z,49.12
2022-08-22T12:57:00.586Z,49.03
2022-08-22T12:59:09.652Z,50.07
2022-08-22T13:01:13.495Z,48.33
2022-08-22T13:03:18.778Z,48.25
2022-08-22T13:05:20.855Z,48.88
2022-08-22T13:07:23.297Z,48.09
2022-08-22T13:09:28.877Z,49.69
2022-08-22T13:11:35.846Z,48.29
2022-08-22T13:13:39.270Z,50.18
2022-08-22T13:15:42.220Z,48.37
2022-08-22T13:17:45.222Z,47.49
2022-08-22T13:19:54.085Z,45.99
2022-08-22T13:21:57.571Z,48.08
2022-08-22T13:24:00.174Z,48.83
2022-08-22T13:26:03.953Z,47.39
2022-08-22T13:28:10.451Z,46.71
2022-08-22T13:30:17.953Z,48.42
2022-08-22T13:32:20.827Z,48.46
2022-08-22T13:34:28.123Z,47.07
2022-08-22T13:36:30.387Z,47.09
2022-08-22T13:38:33.222Z,48.73
2022-08-22T13:40:34.756Z,48.61
2022-08-22T13:42:47.790Z,50.44
2022-08-22T13:44:50.795Z,51.25
2022-08-22T13:47:13.741Z,50.98
2022-08-22T13:49:17.543Z,49.60
2022-08-22T13:51:20.763Z,48.63
2022-08-22T13:53:26.317Z,46.82
2022-08-22T13:55:30.039Z,48.44
2022-08-22T13:57:32.595Z,48.87
2022-08-22T13:59:50.146Z,46.27
2022-08-22T14:01:54.119Z,46.92
2022-08-22T14:03:56.101Z,47.75
2022-08-22T14:05:58.960Z,47.42
2022-08-22T14:08:20.755Z,47.82
2022-08-22T14:10:23.172Z,46.84
2022-08-22T14:12:25.185Z,44.43
2022-08-22T14:14:28.041Z,45.20
2022-08-22T14:16:32.682Z,43.76
2022-08-22T14:18:36.090Z,39.53
2022-08-22T14:20:47.689Z,34.44
2022-08-22T14:22:55.634Z,32.70
2022-08-22T14:24:59.159Z,35.01
2022-08-22T14:27:05.069Z,37.03
2022-08-22T14:29:07.935Z,37.76
2022-08-22T14:31:13.033Z,43.05
2022-08-22T14:33:18.011Z,45.78
2022-08-22T14:35:34.991Z,47.99
2022-08-22T14:37:40.029Z,50.24
2022-08-22T14:39:42.815Z,51.45
2022-08-22T14:41:55.510Z,52.43
2022-08-22T14:43:59.645Z,53.79
2022-08-22T14:46:02.022Z,54.85
2022-08-22T14:48:29.523Z,58.37
2022-08-22T14:50:39.018Z,58.02
2022-08-22T14:52:41.701Z,60.94
2022-08-22T14:54:43.231Z,59.93
2022-08-22T14:56:45.433Z,59.93
2022-08-22T14:58:48.061Z,62.75
2022-08-22T15:00:50.642Z,65.69
2022-08-22T15:02:52.245Z,64.97
2022-08-22T15:04:54.861Z,63.76
2022-08-22T15:06:58.432Z,63.81
2022-08-22T15:09:00.107Z,62.77
2022-08-22T15:11:13.011Z,61.37
2022-08-22T15:13:14.569Z,61.29
2022-08-22T15:15:26.726Z,65.38
2022-08-22T15:17:37.061Z,62.72
2022-08-22T15:19:41.260Z,61.50
2022-08-22T15:21:42.916Z,63.95
2022-08-22T15:23:46.719Z,67.37
2022-08-22T15:25:56.113Z,69.79
2022-08-22T15:27:59.752Z,72.38
2022-08-22T15:30:07.739Z,69.23
2022-08-22T15:32:22.533Z,67.41
2022-08-22T15:34:24.646Z,67.34
2022-08-22T15:36:26.679Z,67.16
2022-08-22T15:38:30.127Z,69.09
2022-08-22T15:40:34.926Z,75.08
2022-08-22T15:42:43.373Z,77.12
2022-08-22T15:44:46.019Z,76.25
2022-08-22T15:46:55.341Z,76.26
2022-08-22T15:48:57.460Z,71.90
2022-08-22T15:50:59.863Z,72.88
2022-08-22T15:53:12.357Z,71.42
2022-08-22T15:55:15.745Z,64.29
2022-08-22T15:57:18.632Z,63.44
2022-08-22T15:59:47.765Z,61.04
2022-08-22T16:01:54.057Z,59.02
2022-08-22T16:03:56.550Z,59.45
2022-08-22T16:05:58.659Z,60.42
2022-08-22T16:08:01.313Z,58.54
2022-08-22T16:10:04.747Z,59.06
2022-08-22T16:12:07.064Z,59.55
2022-08-22T16:14:18.238Z,62.48
2022-08-22T16:16:37.715Z,64.21
2022-08-22T16:18:58.178Z,64.90
2022-08-22T16:21:00.247Z,68.03
2022-08-22T16:23:07.855Z,69.27
2022-08-22T16:25:10.329Z,72.19
2022-08-22T16:27:17.411Z,72.75
2022-08-22T16:29:33.876Z,77.78
2022-08-22T16:31:58.221Z,81.32
2022-08-22T16:34:14.568Z,82.43
2022-08-22T16:36:18.756Z,83.78
2022-08-22T16:38:22.406Z,79.45
2022-08-22T16:40:25.067Z,78.34
2022-08-22T16:42:27.946Z,74.88
2022-08-22T16:44:38.494Z,70.74
2022-08-22T16:46:42.929Z,57.31
2022-08-22T16:48:44.441Z,46.51
2022-08-22T16:50:51.927Z,52.14
2022-08-22T16:52:55.848Z,57.84
2022-08-22T16:54:57.700Z,59.85
2022-08-22T16:57:03.341Z,60.32
2022-08-22T16:59:23.830Z,65.33
2022-08-22T17:01:30.171Z,64.12
2022-08-22T17:03:33.368Z,62.99
2022-08-22T17:05:49.605Z,63.45
2022-08-22T17:07:54.403Z,66.72
2022-08-22T17:10:13.931Z,64.50
2022-08-22T17:12:17.487Z,63.35
2022-08-22T17:14:22.671Z,57.53
2022-08-22T17:16:32.125Z,54.58
2022-08-22T17:18:45.220Z,57.36
2022-08-22T17:20:47.598Z,57.12
2022-08-22T17:22:51.065Z,56.54
2022-08-22T17:24:56.009Z,54.97
2022-08-22T17:26:58.369Z,53.20
2022-08-22T17:29:03.659Z,46.87
2022-08-22T17:31:06.714Z,46.55
2022-08-22T17:33:24.758Z,39.65
2022-08-22T17:35:35.927Z,37.35
2022-08-22T17:37:39.985Z,39.13
2022-08-22T17:39:54.568Z,36.65
2022-08-22T17:41:59.295Z,34.51
2022-08-22T17:44:03.134Z,34.36
2022-08-22T17:46:13.265Z,37.23
2022-08-22T17:48:18.401Z,42.16
2022-08-22T17:50:21.121Z,45.89
2022-08-22T17:52:24.407Z,46.66
2022-08-22T17:54:29.511Z,43.45
2022-08-22T17:56:32.877Z,47.52
2022-08-22T17:58:43.712Z,49.99
2022-08-22T18:00:47.911Z,46.15
2022-08-22T18:02:50.576Z,41.70
2022-08-22T18:05:01.635Z,40.70
2022-08-22T18:07:17.105Z,39.29
2022-08-22T18:09:20.458Z,38.73
2022-08-22T18:11:23.310Z,40.93
2022-08-22T18:13:30.952Z,45.17
2022-08-22T18:15:34.179Z,49.04
2022-08-22T18:17:37.583Z,51.75
2022-08-22T18:19:41.224Z,54.17
2022-08-22T18:21:47.056Z,54.52
2022-08-22T18:23:50.128Z,57.91
2022-08-22T18:25:58.330Z,62.84
2022-08-22T18:28:03.960Z,68.67
2022-08-22T18:30:07.755Z,76.33
2022-08-22T18:32:11.166Z,78.87
2022-08-22T18:34:16.109Z,84.24
2022-08-22T18:36:19.653Z,88.36
2022-08-22T18:38:23.618Z,90.56
2022-08-22T18:40:27.441Z,95.66
2022-08-22T18:42:30.520Z,97.99
2022-08-22T18:44:32.770Z,98.87
2022-08-22T18:46:41.730Z,100.00
2022-08-22T18:49:05.458Z,100.00
2022-08-22T18:51:23.836Z,100.00
2022-08-22T18:53:36.413Z,100.00
2022-08-22T18:55:44.696Z,100.00
2022-08-22T18:57:55.242Z,100.00
2022-08-22T19:00:00.691Z,100.00
2022-08-22T19:02:05.155Z,100.00
2022-08-22T19:04:13.211Z,100.00
2022-08-22T19:06:21.447Z,100.00
2022-08-22T19:08:27.039Z,100.00
2022-08-22T19:10:32.895Z,100.00
2022-08-22T19:12:38.067Z,100.00
2022-08-22T19:14:49.857Z,100.00
2022-08-22T19:16:59.158Z,100.00
2022-08-22T19:19:01.181Z,100.00
2022-08-22T19:21:20.647Z,100.00
2022-08-22T19:23:44.234Z,100.00
2022-08-22T19:26:00.790Z,100.00
2022-08-22T19:28:22.868Z,100.00
2022-08-22T19:30:39.099Z,100.00
2022-08-22T19:32:57.884Z,100.00
2022-08-22T19:35:12.811Z,100.00
2022-08-22T19:37:30.565Z,100.00
2022-08-22T19:39:54.489Z,100.00
2022-08-22T19:41:56.549Z,100.00
2022-08-22T19:43:59.506Z,100.00
2022-08-22T19:46:01.773Z,100.00
2022-08-22T19:48:09.449Z,100.00
2022-08-22T19:50:24.309Z,100.00
2022-08-22T19:52:26.907Z,100.00
2022-08-22T19:54:28.453Z,100.00
2022-08-22T19:56:33.367Z,100.00
2022-08-22T19:58:37.327Z,100.00
2022-08-22T20:00:42.524Z,100.00
2022-08-22T20:02:51.670Z,100.00
2022-08-22T20:04:57.671Z,100.00
2022-08-22T20:07:00.815Z,100.00
2022-08-22T20:09:06.654Z,100.00
2022-08-22T20:11:21.213Z,100.00
2022-08-22T20:13:23.379Z,100.00
2022-08-22T20:15:28.981Z,100.00
2022-08-22T20:17:38.744Z,100.00
2022-08-22T20:20:16.508Z,100.00
2022-08-22T20:22:06.701Z,100.00
2022-08-22T20:24:09.238Z,100.00
2022-08-22T20:26:10.722Z,100.00
2022-08-22T20:28:23.632Z,100.00
2022-08-22T20:30:26.282Z,100.00
2022-08-22T20:32:28.211Z,100.00
2022-08-22T20:34:33.016Z,100.00
2022-08-22T20:36:34.928Z,100.00
2022-08-22T20:38:37.520Z,100.00
2022-08-22T20:40:55.004Z,100.00
2022-08-22T20:43:00.056Z,100.00
2022-08-22T20:45:11.125Z,100.00
2022-08-22T20:47:19.553Z,100.00
2022-08-22T20:49:26.421Z,100.00
2022-08-22T20:51:30.602Z,100.00
2022-08-22T20:53:32.238Z,100.00
2022-08-22T20:55:33.850Z,100.00
2022-08-22T20:57:35.774Z,100.00
2022-08-22T20:59:37.945Z,100.00
2022-08-22T21:01:39.551Z,100.00
2022-08-22T21:03:42.085Z,100.00
2022-08-22T21:05:44.308Z,100.00
2022-08-22T21:07:48.304Z,100.00
2022-08-22T21:09:53.986Z,100.00
2022-08-22T21:11:57.486Z,100.00
2022-08-22T21:13:58.972Z,100.00
2022-08-22T21:16:00.964Z,100.00
2022-08-22T21:18:03.069Z,100.00
2022-08-22T21:20:18.365Z,100.00
2022-08-22T21:22:25.558Z,100.00
2022-08-22T21:24:30.023Z,100.00
2022-08-22T21:26:32.126Z,100.00
2022-08-22T21:28:34.515Z,100.00
2022-08-22T21:30:36.079Z,100.00
2022-08-22T21:32:38.484Z,100.00
2022-08-22T21:34:41.405Z,100.00
2022-08-22T21:36:42.972Z,100.00
2022-08-22T21:38:49.092Z,100.00
2022-08-22T21:40:52.140Z,100.00
2022-08-22T21:43:04.827Z,100.00
2022-08-22T21:45:07.729Z,100.00
2022-08-22T21:47:17.204Z,100.00
2022-08-22T21:49:22.199Z,100.00
2022-08-22T21:51:24.660Z,100.00
2022-08-22T21:53:26.942Z,100.00
2022-08-22T21:55:29.182Z,100.00
2022-08-22T21:57:35.333Z,100.00
2022-08-22T21:59:50.714Z,100.00
2022-08-22T22:01:54.864Z,100.00
2022-08-22T22:03:57.654Z,100.00
2022-08-22T22:06:00.223Z,100.00
2022-08-22T22:08:02.011Z,100.00
2022-08-22T22:10:04.266Z,100.00
2022-08-22T22:12:06.205Z,100.00
2022-08-22T22:14:09.309Z,100.00
2022-08-22T22:16:11.057Z,100.00
2022-08-22T22:18:12.970Z,100.00
2022-08-22T22:20:14.913Z,100.00
2022-08-22T22:22:17.873Z,100.00
2022-08-22T22:24:19.469Z,100.00
2022-08-22T22:26:21.379Z,100.00
2022-08-22T22:28:24.029Z,100.00
2022-08-22T22:30:26.953Z,100.00
2022-08-22T22:32:28.553Z,100.00
2022-08-22T22:34:30.104Z,100.00
2022-08-22T22:36:31.680Z,100.00
2022-08-22T22:38:33.407Z,100.00
2022-08-22T22:40:34.998Z,100.00
2022-08-22T22:42:36.623Z,100.00
2022-08-22T22:44:38.099Z,100.00
2022-08-22T22:46:41.105Z,100.00
2022-08-22T22:48:43.002Z,100.00
2022-08-22T22:50:44.515Z,100.00
2022-08-22T22:52:46.017Z,100.00
2022-08-22T22:54:47.577Z,100.00
2022-08-22T22:56:51.845Z,100.00
2022-08-22T22:59:01.012Z,100.00
2022-08-22T23:01:15.513Z,100.00
2022-08-22T23:03:18.406Z,100.00
2022-08-22T23:05:20.017Z,100.00
2022-08-22T23:07:22.077Z,100.00
2022-08-22T23:09:23.647Z,100.00
2022-08-22T23:11:39.841Z,100.00
2022-08-22T23:13:43.006Z,100.00
2022-08-22T23:15:45.070Z,100.00
2022-08-22T23:17:46.607Z,100.00
2022-08-22T23:19:50.016Z,100.00
2022-08-22T23:21:51.833Z,100.00
2022-08-22T23:23:53.815Z,100.00
2022-08-22T23:25:55.290Z,100.00
2022-08-22T23:27:56.784Z,100.00
2022-08-22T23:29:58.345Z,100.00
2022-08-22T23:32:00.309Z,100.00
2022-08-22T23:34:02.630Z,100.00
2022-08-22T23:36:10.535Z,100.00
2022-08-22T23:38:12.047Z,100.00
2022-08-22T23:40:13.634Z,100.00
2022-08-22T23:42:15.192Z,100.00
2022-08-22T23:44:17.570Z,100.00
2022-08-22T23:46:19.817Z,100.00
2022-08-22T23:48:21.385Z,100.00
2022-08-22T23:50:22.852Z,100.00
2022-08-22T23:52:25.788Z,100.00
2022-08-22T23:54:27.386Z,100.00
2022-08-22T23:56:29.546Z,100.00
2022-08-22T23:58:31.915Z,100.00
